IQQ weather

Diego Aracena Airport
Iquique, Tarapac√° Region, Chile

Public forecast

Using degrees Celsius for public forecast. Weather courtesy of forecast.io.

METAR (pilot weather report)

Retrieved 2019/05/26 10:00 UTC (48 minutes ago):

SCDA 261000Z 17003KT 9999 OVC030 17/10 Q1016

TAF (pilot weather forecast)

Retrieved 2019/05/26 06:00 UTC (5 hours ago):

TAF SCDA 260430Z 2606/2706 27004KT 9999 OVC030 TN17/2606Z TX19/2619Z BECMG 2616/2618 23010KT SCT036 BECMG 2622/2624 BKN025 BECMG 2702/2704 20004KT